Terminal Aerodrome Forecast
Issued by NWS Cleveland, OH

Home | Current Version | Previous Version | Graphics & Text | Print | Product List | Glossary On
Versions: 1 2 3 4 5 6 7 8 9 10 11 12 13 14 15 16 17 18 19 20 21 22 23 24 25 26
000
FTUS41 KCLE 212200 AAC
TAFCAK
TAF AMD
KCAK 212200Z 2122/2218 23010KT P6SM BKN025
     FM220000 23008KT P6SM BKN035
      TEMPO 2204/2208 2SM TSRA BR SCT015 OVC025CB
     FM220800 25004KT P6SM BKN035
     FM221600 24007KT 6SM BR VCSH BKN025=

USA.gov is the U.S. government's official web portal to all federal, state and local government web resources and services.